Time;durP1;ratioP1;P1;durP2;ratioP2;P2;SDS_P1;SDS_P2;PMS_P1;PMS_P2;Temp;Humidity;BMP_temperature;BMP_pressure;BME280_temperature;BME280_humidity;BME280_pressure;Samples;Min_cycle;Max_cycle;Signal;HPM_P1;HPM_P2
2022/05/06 00:01:07;;;;;;;17.58;13.13;;;9.30;99.90;;;;;;5060930;28;20442;-49
2022/05/06 00:03:33;;;;;;;24.55;18.58;;;9.20;99.90;;;;;;5066702;28;20041;-47
2022/05/06 00:05:58;;;;;;;25.80;18.83;;;9.30;99.90;;;;;;5078722;28;20473;-49
2022/05/06 00:08:25;;;;;;;32.63;21.33;;;9.30;99.90;;;;;;5072748;28;20044;-51
2022/05/06 00:10:51;;;;;;;29.52;20.27;;;9.30;99.90;;;;;;5072712;28;20147;-49
2022/05/06 00:13:17;;;;;;;33.47;23.98;;;9.20;99.90;;;;;;5068391;28;20048;-51
2022/05/06 00:15:42;;;;;;;18.15;14.43;;;9.20;99.90;;;;;;5074021;28;20052;-51
2022/05/06 00:18:08;;;;;;;20.75;14.77;;;9.10;99.90;;;;;;5079275;28;20055;-50
2022/05/06 00:20:35;;;;;;;23.83;16.00;;;9.10;99.90;;;;;;5080980;28;20449;-52
2022/05/06 00:23:01;;;;;;;25.92;17.83;;;9.00;99.90;;;;;;5079698;28;20625;-49
2022/05/06 00:25:27;;;;;;;20.90;15.88;;;9.00;99.90;;;;;;5059630;28;20056;-50
2022/05/06 00:27:54;;;;;;;20.00;15.43;;;9.00;99.90;;;;;;5073802;28;20056;-49
2022/05/06 00:30:20;;;;;;;22.23;15.70;;;9.00;99.90;;;;;;5077555;28;20159;-51
2022/05/06 00:32:45;;;;;;;12.15;10.32;;;9.00;99.90;;;;;;5079805;28;20052;-49
2022/05/06 00:35:11;;;;;;;15.27;11.65;;;8.90;99.90;;;;;;5080168;28;20158;-52
2022/05/06 00:37:37;;;;;;;11.45;9.43;;;8.90;99.90;;;;;;5074091;28;20052;-50
2022/05/06 00:40:03;;;;;;;8.75;8.05;;;8.90;99.90;;;;;;5080363;28;20044;-50
2022/05/06 00:42:29;;;;;;;11.63;10.23;;;8.90;99.90;;;;;;5074736;28;20052;-53
2022/05/06 00:44:54;;;;;;;15.38;12.15;;;8.90;99.90;;;;;;5077542;28;20354;-52
2022/05/06 00:47:22;;;;;;;13.80;12.30;;;8.80;99.90;;;;;;5073447;28;20556;-52
2022/05/06 00:49:52;;;;;;;24.15;16.55;;;8.80;99.90;;;;;;5074526;28;20141;-51
2022/05/06 00:52:18;;;;;;;23.17;19.15;;;8.60;99.90;;;;;;5074095;28;20044;-51
2022/05/06 00:54:45;;;;;;;25.33;19.33;;;8.60;99.90;;;;;;5078249;28;20051;-50
2022/05/06 00:57:12;;;;;;;21.17;17.45;;;8.50;99.90;;;;;;5078212;28;20044;-51
2022/05/06 01:00:17;;;;;;;27.73;19.85;;;8.40;99.90;;;;;;5073808;28;20044;-48
2022/05/06 01:02:23;;;;;;;64.38;25.38;;;8.40;99.90;;;;;;5079409;28;20044;-52
2022/05/06 01:04:51;;;;;;;78.18;24.85;;;8.40;99.90;;;;;;5080807;28;20067;-48
2022/05/06 01:07:19;;;;;;;73.47;21.58;;;8.40;99.90;;;;;;5076688;28;20118;-49
2022/05/06 01:09:49;;;;;;;31.63;22.30;;;8.30;99.90;;;;;;5080002;28;20090;-49
2022/05/06 01:12:16;;;;;;;87.55;26.08;;;8.30;99.90;;;;;;5082380;28;20482;-50
2022/05/06 01:14:42;;;;;;;71.60;25.15;;;8.30;99.90;;;;;;5075449;28;20055;-42
2022/05/06 01:17:09;;;;;;;102.22;26.45;;;8.40;99.90;;;;;;5079459;28;20048;-53
2022/05/06 01:19:35;;;;;;;55.85;23.45;;;8.40;99.90;;;;;;5076560;28;20052;-52
2022/05/06 01:22:01;;;;;;;46.80;22.05;;;8.40;99.90;;;;;;5080510;28;20505;-49
2022/05/06 01:24:26;;;;;;;45.60;20.73;;;8.40;99.90;;;;;;5077342;28;20052;-48
2022/05/06 01:26:55;;;;;;;47.15;23.02;;;8.50;99.90;;;;;;5078568;28;20134;-51
2022/05/06 01:29:22;;;;;;;76.93;27.23;;;8.40;99.90;;;;;;5079398;28;20052;-53
2022/05/06 01:31:53;;;;;;;143.85;28.80;;;8.50;99.90;;;;;;5073018;28;20051;-49
2022/05/06 01:34:22;;;;;;;361.60;36.15;;;8.50;99.90;;;;;;5079641;28;20131;-49
2022/05/06 01:36:51;;;;;;;278.92;39.00;;;8.60;99.90;;;;;;5079944;28;20055;-50
2022/05/06 01:39:20;;;;;;;255.18;36.35;;;8.60;99.90;;;;;;5080185;28;20389;-49
2022/05/06 01:41:52;;;;;;;173.38;33.65;;;8.60;99.90;;;;;;5076599;28;20131;-48
2022/05/06 01:44:21;;;;;;;468.13;46.33;;;8.60;99.90;;;;;;5074391;28;20047;-53
2022/05/06 01:46:48;;;;;;;287.92;41.60;;;8.70;99.90;;;;;;5082739;28;20522;-49
2022/05/06 01:49:15;;;;;;;427.15;43.28;;;8.70;99.90;;;;;;5079127;28;20113;-48
2022/05/06 01:51:42;;;;;;;128.93;30.00;;;8.80;99.90;;;;;;5072267;28;20372;-51
2022/05/06 01:54:09;;;;;;;65.70;28.98;;;8.70;99.90;;;;;;5070744;28;20052;-48
2022/05/06 01:56:35;;;;;;;126.68;31.83;;;8.80;99.90;;;;;;5073833;28;20055;-52
2022/05/06 01:59:01;;;;;;;205.13;36.05;;;8.80;99.90;;;;;;5086000;28;20044;-49
2022/05/06 02:01:29;;;;;;;298.55;41.08;;;8.80;99.90;;;;;;5073701;28;20429;-46
2022/05/06 02:06:39;;;;;;;238.52;38.88;;;8.90;99.90;;;;;;5072414;28;20112;-52
2022/05/06 02:09:05;;;;;;;489.45;50.95;;;9.00;99.90;;;;;;5072056;28;20043;-50
2022/05/06 02:11:31;;;;;;;179.25;39.47;;;9.10;99.90;;;;;;5081058;28;20047;-50
2022/05/06 02:13:56;;;;;;;161.43;38.42;;;9.10;99.90;;;;;;5072329;28;20083;-47
2022/05/06 02:16:22;;;;;;;107.95;38.88;;;9.10;99.90;;;;;;5074793;28;20730;-53
2022/05/06 02:18:48;;;;;;;54.92;34.80;;;9.20;99.90;;;;;;5076275;28;20059;-52
2022/05/06 02:21:13;;;;;;;48.20;36.00;;;9.20;99.90;;;;;;5081578;28;20055;-51
2022/05/06 02:23:39;;;;;;;65.28;36.53;;;9.30;99.90;;;;;;5065920;28;20044;-50
2022/05/06 02:26:05;;;;;;;44.60;34.75;;;9.30;99.90;;;;;;5080144;28;20151;-51
2022/05/06 02:28:30;;;;;;;62.65;37.70;;;9.40;99.90;;;;;;5073899;28;20048;-51
2022/05/06 02:33:41;;;;;;;55.92;38.00;;;9.50;99.90;;;;;;5080389;28;20044;-45
2022/05/06 02:36:06;;;;;;;57.40;39.47;;;9.60;99.90;;;;;;5078668;28;20302;-44
2022/05/06 02:38:33;;;;;;;61.38;40.28;;;9.60;99.90;;;;;;5080691;28;20203;-48
2022/05/06 02:40:59;;;;;;;87.00;45.83;;;9.70;99.90;;;;;;5068336;28;20056;-48
2022/05/06 02:43:25;;;;;;;87.10;45.60;;;9.80;99.90;;;;;;5072564;28;20058;-47
2022/05/06 02:45:51;;;;;;;77.82;47.97;;;9.80;99.90;;;;;;5070491;28;20505;-53
2022/05/06 02:48:16;;;;;;;88.93;50.60;;;9.90;99.90;;;;;;5080604;28;20119;-52
2022/05/06 02:50:43;;;;;;;105.70;53.33;;;9.90;99.90;;;;;;5080698;28;20497;-53
2022/05/06 02:53:09;;;;;;;117.43;54.42;;;10.00;99.90;;;;;;5080624;28;20127;-48
2022/05/06 02:55:35;;;;;;;128.30;51.92;;;10.00;99.90;;;;;;5078603;28;20054;-49
2022/05/06 02:58:01;;;;;;;109.32;51.78;;;10.00;99.90;;;;;;5075759;28;20088;-51
2022/05/06 03:00:28;;;;;;;77.00;47.35;;;10.00;99.90;;;;;;5084825;28;20075;-52
2022/05/06 03:02:55;;;;;;;71.35;45.33;;;10.00;99.90;;;;;;5076060;28;20048;-50
2022/05/06 03:05:21;;;;;;;94.55;48.35;;;10.00;99.90;;;;;;5074198;28;20241;-50
2022/05/06 03:07:47;;;;;;;71.05;48.40;;;10.00;99.90;;;;;;5073435;28;20410;-51
2022/05/06 03:10:12;;;;;;;79.03;48.92;;;10.00;99.90;;;;;;5069472;28;20520;-48
2022/05/06 03:12:44;;;;;;;81.22;47.38;;;10.00;99.90;;;;;;5069827;28;20058;-51
2022/05/06 03:15:10;;;;;;;78.78;47.75;;;10.00;99.90;;;;;;5068193;28;20833;-51
2022/05/06 03:17:36;;;;;;;91.90;51.42;;;10.00;99.90;;;;;;5072921;28;20479;-48
2022/05/06 03:20:08;;;;;;;85.53;49.03;;;10.00;99.90;;;;;;5072185;28;20055;-47
2022/05/06 03:22:42;;;;;;;118.88;52.55;;;10.00;99.90;;;;;;5074100;28;20048;-51
2022/05/06 03:25:10;;;;;;;110.93;52.10;;;10.00;99.90;;;;;;5066621;28;20045;-50
2022/05/06 03:30:20;;;;;;;158.07;56.47;;;10.10;99.90;;;;;;5067410;28;20096;-52
2022/05/06 03:32:46;;;;;;;123.03;58.17;;;10.10;99.90;;;;;;5070600;28;20527;-49
2022/05/06 03:35:12;;;;;;;109.53;56.75;;;10.20;99.90;;;;;;5059610;28;20059;-45
2022/05/06 03:37:38;;;;;;;129.23;57.25;;;10.20;99.90;;;;;;5071523;28;20040;-47
2022/05/06 03:40:05;;;;;;;138.05;58.10;;;10.40;99.90;;;;;;5075889;28;20052;-49
2022/05/06 03:42:31;;;;;;;112.88;58.40;;;10.40;99.90;;;;;;5074153;28;20503;-51
2022/05/06 03:44:59;;;;;;;118.25;57.97;;;10.40;99.90;;;;;;5077434;28;20521;-48
2022/05/06 03:47:25;;;;;;;106.18;56.40;;;10.50;99.90;;;;;;5079118;28;20540;-49
2022/05/06 03:52:36;;;;;;;126.05;62.75;;;10.50;99.90;;;;;;5076482;28;20196;-49
2022/05/06 03:55:02;;;;;;;127.93;60.13;;;10.50;99.90;;;;;;5071453;28;20452;-49
2022/05/06 03:57:28;;;;;;;112.70;58.88;;;10.50;99.90;;;;;;5079541;28;20079;-51
2022/05/06 03:59:57;;;;;;;116.65;58.00;;;10.50;99.90;;;;;;5069716;28;20498;-51
2022/05/06 04:02:22;;;;;;;103.65;54.47;;;10.70;99.90;;;;;;5062947;28;20102;-52
2022/05/06 04:04:48;;;;;;;88.60;51.58;;;10.70;99.90;;;;;;5072676;28;20484;-49
2022/05/06 04:07:14;;;;;;;93.57;50.05;;;10.70;99.90;;;;;;5072075;28;20044;-49
2022/05/06 04:09:41;;;;;;;113.22;52.28;;;10.70;99.90;;;;;;5069991;28;20393;-52
2022/05/06 04:12:09;;;;;;;100.22;50.55;;;10.70;99.90;;;;;;5076993;28;20056;-53
2022/05/06 04:14:35;;;;;;;100.80;51.30;;;10.80;99.90;;;;;;5085644;28;20048;-52
2022/05/06 04:17:03;;;;;;;95.22;48.67;;;10.80;99.90;;;;;;5079268;28;20066;-54
2022/05/06 04:19:29;;;;;;;103.18;49.85;;;10.90;99.90;;;;;;5068722;28;20048;-50
2022/05/06 04:24:40;;;;;;;98.22;48.58;;;10.90;99.90;;;;;;5070620;28;20051;-49
2022/05/06 04:27:06;;;;;;;95.72;46.08;;;10.90;99.90;;;;;;5072852;28;20546;-51
2022/05/06 04:29:35;;;;;;;101.32;48.75;;;11.00;99.90;;;;;;5072550;28;20591;-46
2022/05/06 04:32:01;;;;;;;210.50;49.10;;;10.90;99.90;;;;;;5073498;28;20063;-51
2022/05/06 04:34:26;;;;;;;99.10;46.05;;;10.90;99.90;;;;;;5081415;28;20430;-54
2022/05/06 04:36:52;;;;;;;110.18;45.40;;;10.90;99.90;;;;;;5087025;28;20048;-50
2022/05/06 04:39:19;;;;;;;83.97;40.13;;;10.90;99.90;;;;;;5080597;28;20839;-53
2022/05/06 04:41:47;;;;;;;127.97;39.63;;;11.00;99.90;;;;;;5076806;28;20051;-52
2022/05/06 04:44:13;;;;;;;94.40;38.47;;;11.00;99.90;;;;;;5070820;28;20055;-50
2022/05/06 04:46:38;;;;;;;91.07;30.60;;;10.90;99.90;;;;;;5082208;28;20044;-44
2022/05/06 04:49:05;;;;;;;66.57;28.98;;;10.90;99.90;;;;;;5080405;28;20387;-54
2022/05/06 04:51:31;;;;;;;63.65;29.90;;;10.90;99.90;;;;;;5076315;28;20131;-52
2022/05/06 04:53:57;;;;;;;61.67;28.25;;;11.00;99.90;;;;;;5077587;28;20044;-53
2022/05/06 04:56:23;;;;;;;56.15;28.55;;;10.90;99.90;;;;;;5071535;28;20525;-53
2022/05/06 04:58:48;;;;;;;59.70;28.17;;;10.90;99.90;;;;;;5073036;28;20052;-51
2022/05/06 05:01:14;;;;;;;46.90;27.02;;;10.90;99.90;;;;;;5083836;28;20054;-54
2022/05/06 05:03:40;;;;;;;40.28;23.65;;;11.00;99.90;;;;;;5080391;28;20052;-51
2022/05/06 05:06:07;;;;;;;40.33;23.15;;;10.90;99.90;;;;;;5081373;28;20047;-49
2022/05/06 05:08:34;;;;;;;50.67;24.27;;;10.90;99.90;;;;;;5081302;28;20048;-53
2022/05/06 05:11:03;;;;;;;39.42;23.33;;;10.90;99.90;;;;;;5079943;28;20144;-51
2022/05/06 05:13:34;;;;;;;60.03;25.83;;;10.90;99.90;;;;;;5066279;28;20445;-53
2022/05/06 05:15:59;;;;;;;45.47;22.75;;;10.90;99.90;;;;;;5080573;28;20048;-46
2022/05/06 05:18:25;;;;;;;40.50;24.50;;;10.80;99.90;;;;;;5072610;28;20142;-52
2022/05/06 05:20:51;;;;;;;45.15;25.02;;;10.80;99.90;;;;;;5067502;28;20086;-50
2022/05/06 05:23:17;;;;;;;51.08;23.60;;;10.80;99.90;;;;;;5076510;28;20112;-50
2022/05/06 05:25:43;;;;;;;45.67;22.63;;;10.80;99.90;;;;;;5072383;28;20542;-49
2022/05/06 05:28:09;;;;;;;48.95;24.30;;;10.80;99.90;;;;;;5081811;28;20048;-51
2022/05/06 05:30:35;;;;;;;50.17;23.10;;;10.90;99.90;;;;;;5079274;28;20042;-50
2022/05/06 05:33:02;;;;;;;41.83;23.58;;;10.90;99.90;;;;;;5082281;28;20415;-52
2022/05/06 05:35:29;;;;;;;43.72;21.27;;;10.90;99.90;;;;;;5075156;28;20495;-50
2022/05/06 05:37:56;;;;;;;40.35;20.42;;;10.90;99.90;;;;;;5067645;28;20496;-48
2022/05/06 05:40:22;;;;;;;40.13;18.85;;;11.00;99.90;;;;;;5074084;28;20056;-52
2022/05/06 05:42:47;;;;;;;34.63;22.15;;;11.00;99.90;;;;;;5079923;28;20047;-53
2022/05/06 05:50:43;;;;;;;30.42;20.05;;;11.20;99.90;;;;;;5077403;28;20040;-49
2022/05/06 05:53:09;;;;;;;25.42;19.08;;;11.20;99.90;;;;;;5084048;28;20055;-51
2022/05/06 05:55:35;;;;;;;33.83;20.25;;;11.20;99.90;;;;;;5086176;28;20043;-54
2022/05/06 05:58:03;;;;;;;31.05;18.80;;;11.30;99.90;;;;;;5082983;28;20410;-58
2022/05/06 06:00:29;;;;;;;27.42;18.17;;;11.30;99.90;;;;;;5074291;28;20048;-52
2022/05/06 06:02:56;;;;;;;26.00;17.23;;;11.30;99.90;;;;;;5075745;28;20056;-47
2022/05/06 06:05:23;;;;;;;38.10;14.90;;;11.30;99.90;;;;;;5068596;28;20056;-54
2022/05/06 06:07:49;;;;;;;19.27;12.18;;;11.30;99.90;;;;;;5076231;28;20052;-49
2022/05/06 06:10:14;;;;;;;13.75;11.85;;;11.30;99.90;;;;;;5080541;28;20054;-52
2022/05/06 06:12:40;;;;;;;15.18;12.55;;;11.40;99.90;;;;;;5074145;28;20044;-52
2022/05/06 06:15:07;;;;;;;18.45;13.85;;;11.40;99.90;;;;;;5076779;28;20067;-53
2022/05/06 06:17:33;;;;;;;13.80;12.15;;;11.40;99.90;;;;;;5080171;28;20066;-49
2022/05/06 06:19:59;;;;;;;12.65;11.27;;;11.50;99.90;;;;;;5080050;28;20048;-50
2022/05/06 06:22:25;;;;;;;12.38;11.07;;;11.50;99.90;;;;;;5078024;28;20056;-49
2022/05/06 06:24:50;;;;;;;14.27;11.00;;;11.50;99.90;;;;;;5075331;28;20158;-50
2022/05/06 06:27:16;;;;;;;10.85;9.75;;;11.60;99.90;;;;;;5081010;28;20577;-52
2022/05/06 06:29:44;;;;;;;12.75;11.35;;;11.70;99.90;;;;;;5075073;28;20149;-49
2022/05/06 06:32:09;;;;;;;13.70;12.30;;;11.70;99.90;;;;;;5080506;28;20083;-48
2022/05/06 06:34:35;;;;;;;13.07;11.52;;;11.80;99.90;;;;;;5079864;28;20055;-50
2022/05/06 06:37:01;;;;;;;13.98;12.63;;;11.90;99.90;;;;;;5079944;28;20100;-46
2022/05/06 06:39:26;;;;;;;14.35;12.88;;;11.90;99.90;;;;;;5078240;28;20518;-47
2022/05/06 06:41:52;;;;;;;14.50;13.10;;;12.00;99.90;;;;;;5076342;28;20491;-50
2022/05/06 06:44:18;;;;;;;14.57;13.07;;;12.20;99.90;;;;;;5071305;28;20051;-52
2022/05/06 06:46:43;;;;;;;16.05;14.25;;;12.20;99.90;;;;;;5074828;28;20055;-51
2022/05/06 06:49:10;;;;;;;15.30;13.70;;;12.30;99.90;;;;;;5076899;28;20043;-53
2022/05/06 06:51:36;;;;;;;15.68;14.15;;;12.30;99.90;;;;;;5081271;28;20572;-50
2022/05/06 06:54:02;;;;;;;17.05;15.30;;;12.40;99.90;;;;;;5076973;28;20051;-51
2022/05/06 06:56:27;;;;;;;16.90;15.13;;;12.50;99.90;;;;;;5078275;28;20040;-53
2022/05/06 06:58:53;;;;;;;16.63;15.02;;;12.60;99.90;;;;;;5078583;28;20450;-50
2022/05/06 07:01:20;;;;;;;18.52;16.80;;;12.70;99.90;;;;;;5074435;28;20145;-54
2022/05/06 07:03:46;;;;;;;17.15;15.55;;;12.80;99.90;;;;;;5070701;28;20509;-52
2022/05/06 07:11:52;;;;;;;17.88;16.15;;;12.80;99.90;;;;;;5076501;28;20044;-54
2022/05/06 07:14:18;;;;;;;17.35;15.70;;;12.70;99.90;;;;;;5069782;28;20083;-53
2022/05/06 07:16:44;;;;;;;16.20;14.68;;;12.70;99.90;;;;;;5070256;28;20143;-50
2022/05/06 07:19:10;;;;;;;16.83;15.23;;;12.70;99.90;;;;;;5071417;28;20054;-54
2022/05/06 07:21:38;;;;;;;16.95;15.25;;;12.80;99.90;;;;;;5073331;28;20048;-51
2022/05/06 07:24:04;;;;;;;16.17;14.68;;;13.00;99.90;;;;;;5071862;28;20048;-50
2022/05/06 07:26:30;;;;;;;16.65;15.05;;;13.20;99.90;;;;;;5074242;28;20062;-49
2022/05/06 07:28:56;;;;;;;16.75;15.15;;;13.30;99.90;;;;;;5074409;28;20048;-51
2022/05/06 07:31:22;;;;;;;17.20;15.63;;;13.50;99.90;;;;;;5072234;28;20043;-49
2022/05/06 07:33:49;;;;;;;16.58;15.10;;;13.60;99.90;;;;;;5065221;28;20132;-52
2022/05/06 07:36:14;;;;;;;15.40;14.00;;;13.80;99.90;;;;;;5072681;28;20079;-49
2022/05/06 07:38:40;;;;;;;16.35;14.88;;;13.90;99.90;;;;;;5069543;28;20131;-52
2022/05/06 07:41:06;;;;;;;16.58;15.07;;;14.10;99.90;;;;;;5069156;28;20040;-53
2022/05/06 07:43:31;;;;;;;16.58;14.95;;;14.30;99.90;;;;;;5070271;28;20045;-48
2022/05/06 07:45:57;;;;;;;15.30;13.93;;;14.30;99.90;;;;;;5071602;28;20075;-52
2022/05/06 07:48:23;;;;;;;16.30;14.70;;;14.30;99.90;;;;;;5073453;28;20040;-54
2022/05/06 07:50:54;;;;;;;16.90;15.30;;;14.30;99.90;;;;;;5072636;28;20097;-50
2022/05/06 07:53:19;;;;;;;14.55;13.10;;;14.80;99.90;;;;;;5070059;28;20139;-51
2022/05/06 07:55:45;;;;;;;13.98;12.77;;;15.40;99.90;;;;;;5067855;28;21319;-54
2022/05/06 07:58:12;;;;;;;13.10;11.98;;;16.00;99.90;;;;;;5071994;28;20308;-49
2022/05/06 08:00:37;;;;;;;13.10;12.00;;;16.40;99.90;;;;;;5066665;28;20174;-54
2022/05/06 08:05:49;;;;;;;11.23;10.23;;;16.60;99.90;;;;;;5064927;28;20049;-50
2022/05/06 08:08:15;;;;;;;12.50;11.40;;;16.60;99.90;;;;;;5061921;28;20508;-50
2022/05/06 08:10:41;;;;;;;12.35;11.20;;;16.80;99.90;;;;;;5074282;28;20052;-53
2022/05/06 08:13:07;;;;;;;11.95;10.75;;;16.70;99.90;;;;;;5069335;28;20098;-54
2022/05/06 08:15:33;;;;;;;11.45;10.45;;;16.90;99.90;;;;;;5077194;28;20048;-52
2022/05/06 08:17:59;;;;;;;24.48;13.02;;;16.70;99.90;;;;;;5076495;28;20510;-54
2022/05/06 08:20:25;;;;;;;11.18;10.05;;;16.90;99.90;;;;;;5080635;28;20055;-50
2022/05/06 08:22:51;;;;;;;15.70;9.82;;;16.70;99.90;;;;;;5080742;28;20051;-52
2022/05/06 08:25:17;;;;;;;8.93;8.07;;;16.70;99.90;;;;;;5079980;28;20080;-52
2022/05/06 08:27:44;;;;;;;9.65;8.75;;;16.70;99.90;;;;;;5080397;28;20775;-50
2022/05/06 08:30:12;;;;;;;8.52;7.82;;;16.70;99.90;;;;;;5077757;28;20044;-51
2022/05/06 08:32:40;;;;;;;7.32;6.72;;;16.90;99.90;;;;;;5062383;28;20048;-51
2022/05/06 08:35:07;;;;;;;8.32;7.57;;;16.90;99.90;;;;;;5077072;28;20071;-53
2022/05/06 08:37:46;;;;;;;8.35;7.60;;;16.80;99.90;;;;;;5079842;28;20060;-49
2022/05/06 08:40:19;;;;;;;8.68;7.90;;;16.90;99.90;;;;;;5069746;28;20466;-50
2022/05/06 08:42:48;;;;;;;;;;;16.90;99.90;;;;;;5067871;28;20062;-50
2022/05/06 08:50:51;;;;;;;8.13;7.03;;;17.00;99.90;;;;;;5068460;28;20135;-52
2022/05/06 08:53:17;;;;;;;7.43;6.28;;;17.30;99.90;;;;;;5073929;28;20048;-54
2022/05/06 08:55:43;;;;;;;7.07;6.45;;;17.60;99.90;;;;;;5074614;28;20110;-50
2022/05/06 08:58:09;;;;;;;8.60;7.70;;;17.60;99.90;;;;;;5066741;28;20477;-54
2022/05/06 09:00:35;;;;;;;9.15;8.35;;;17.70;99.90;;;;;;5062443;28;20147;-50
2022/05/06 09:03:01;;;;;;;9.13;8.40;;;17.80;99.90;;;;;;5078504;28;20153;-47
2022/05/06 09:05:27;;;;;;;9.20;8.32;;;17.80;99.90;;;;;;5078763;28;20059;-54
2022/05/06 09:08:02;;;;;;;9.18;8.38;;;17.80;99.90;;;;;;5069687;28;20052;-49
2022/05/06 09:10:29;;;;;;;7.93;7.22;;;17.70;99.90;;;;;;5067261;28;20048;-53
2022/05/06 09:12:57;;;;;;;8.13;7.40;;;17.80;99.90;;;;;;5073096;28;20386;-50
2022/05/06 09:18:09;;;;;;;8.48;7.78;;;18.40;99.90;;;;;;5065296;28;20047;-49
2022/05/06 09:20:36;;;;;;;8.35;7.55;;;18.40;99.90;;;;;;5076041;28;20052;-51
2022/05/06 09:23:24;;;;;;;9.32;8.50;;;18.30;99.90;;;;;;5077530;28;20456;-48
2022/05/06 09:25:54;;;;;;;8.60;7.70;;;18.50;99.90;;;;;;5073489;28;20048;-51
2022/05/06 09:28:28;;;;;;;8.07;7.28;;;18.40;99.90;;;;;;5077878;28;20491;-50
2022/05/06 09:31:01;;;;;;;7.97;7.28;;;18.60;99.90;;;;;;5081835;28;20604;-50
2022/05/06 09:33:31;;;;;;;7.70;7.10;;;18.50;99.90;;;;;;5080003;28;20086;-49
2022/05/06 09:35:57;;;;;;;8.60;6.80;;;18.50;99.90;;;;;;5079075;28;20113;-54
2022/05/06 09:38:29;;;;;;;9.48;7.00;;;18.60;99.90;;;;;;5083637;28;20522;-50
2022/05/06 09:40:56;;;;;;;7.22;6.53;;;18.70;99.90;;;;;;5075510;28;20055;-55
2022/05/06 09:43:24;;;;;;;12.30;9.15;;;18.80;99.90;;;;;;5080503;28;20181;-50
2022/05/06 09:45:50;;;;;;;6.97;6.38;;;18.90;99.90;;;;;;5080074;28;20043;-50
2022/05/06 09:48:15;;;;;;;8.38;7.18;;;18.80;99.90;;;;;;5078759;28;20212;-55
2022/05/06 09:50:47;;;;;;;12.23;7.70;;;18.90;99.90;;;;;;5077126;28;20317;-51
2022/05/06 09:53:18;;;;;;;6.90;6.30;;;19.00;99.90;;;;;;5076314;28;20587;-52
2022/05/06 09:55:46;;;;;;;8.32;6.30;;;19.30;99.90;;;;;;5074276;28;20048;-48
2022/05/06 09:58:16;;;;;;;6.50;5.88;;;19.30;99.90;;;;;;5078619;28;20055;-51
2022/05/06 10:00:43;;;;;;;7.80;6.40;;;19.20;99.90;;;;;;5076748;28;20052;-51
2022/05/06 10:03:09;;;;;;;22.45;11.38;;;19.00;99.90;;;;;;5079160;28;20055;-50
2022/05/06 10:05:37;;;;;;;16.10;7.97;;;19.00;99.90;;;;;;5073611;28;20043;-53
2022/05/06 10:10:44;;;;;;;7.47;5.28;;;19.20;99.90;;;;;;5058573;28;20063;-53
2022/05/06 10:13:19;;;;;;;8.77;6.05;;;19.30;99.90;;;;;;5051375;28;20056;-52
2022/05/06 10:15:49;;;;;;;6.68;6.07;;;19.50;99.90;;;;;;5054778;28;20061;-51
2022/05/06 10:18:30;;;;;;;7.25;6.60;;;19.60;99.90;;;;;;5041982;28;20059;-53
2022/05/06 10:20:56;;;;;;;7.05;6.20;;;19.50;99.90;;;;;;5054493;28;20084;-50
2022/05/06 10:23:24;;;;;;;7.53;6.85;;;19.70;99.90;;;;;;5056287;28;20159;-48
2022/05/06 10:25:52;;;;;;;9.43;7.47;;;19.70;99.90;;;;;;5059777;28;20056;-52
2022/05/06 10:34:12;;;;;;;8.32;7.53;;;19.80;99.90;;;;;;5059117;28;20044;-55
2022/05/06 10:36:48;;;;;;;8.13;6.43;;;19.80;99.90;;;;;;5059499;28;20045;-50
2022/05/06 10:39:24;;;;;;;8.90;8.10;;;19.90;99.90;;;;;;5059119;28;20048;-50
2022/05/06 10:42:06;;;;;;;9.10;6.90;;;20.00;99.90;;;;;;5050857;28;20049;-51
2022/05/06 10:44:38;;;;;;;8.60;7.80;;;20.10;99.90;;;;;;5051405;28;20080;-51
2022/05/06 10:47:13;;;;;;;8.43;7.55;;;20.30;99.90;;;;;;5048988;28;20131;-53
2022/05/06 10:49:39;;;;;;;7.70;6.97;;;20.10;99.90;;;;;;5060866;28;20058;-53
2022/05/06 10:52:14;;;;;;;8.57;7.75;;;20.20;99.90;;;;;;5062409;28;20040;-53
2022/05/06 10:54:47;;;;;;;8.10;7.30;;;20.30;99.90;;;;;;5041435;28;20415;-51
2022/05/06 10:57:16;;;;;;;10.95;8.48;;;20.40;99.90;;;;;;5054498;28;20147;-53
2022/05/06 11:00:02;;;;;;;10.07;9.10;;;20.40;99.90;;;;;;5057152;28;20082;-54
2022/05/06 11:02:33;;;;;;;10.45;8.82;;;20.40;99.90;;;;;;5059263;28;20059;-56
2022/05/06 11:05:01;;;;;;;38.53;13.73;;;20.40;99.90;;;;;;5043708;28;20087;-49
2022/05/06 11:07:28;;;;;;;16.77;9.98;;;20.60;99.90;;;;;;5038476;28;20061;-50
2022/05/06 11:09:56;;;;;;;10.70;9.80;;;20.90;99.90;;;;;;5047184;28;20111;-50
2022/05/06 11:12:50;;;;;;;10.25;9.25;;;20.90;99.90;;;;;;5047672;28;20116;-53
2022/05/06 11:15:22;;;;;;;8.30;7.55;;;20.80;99.90;;;;;;5054021;28;20045;-53
2022/05/06 11:17:49;;;;;;;8.23;7.38;;;20.90;99.90;;;;;;5054617;28;20052;-51
2022/05/06 11:20:26;;;;;;;8.95;7.88;;;21.00;99.90;;;;;;5033243;28;20044;-44
2022/05/06 11:23:13;;;;;;;12.05;8.60;;;21.00;99.90;;;;;;5035303;28;20113;-53
2022/05/06 11:25:42;;;;;;;9.25;8.32;;;21.00;99.90;;;;;;5051446;28;20052;-51
2022/05/06 11:28:37;;;;;;;8.82;8.02;;;21.00;99.90;;;;;;5036909;28;20060;-53
2022/05/06 11:31:11;;;;;;;8.63;7.43;;;20.90;99.90;;;;;;5058490;28;20060;-53
2022/05/06 11:33:38;;;;;;;9.93;7.78;;;21.10;99.90;;;;;;5058598;28;20149;-52
2022/05/06 11:36:07;;;;;;;8.18;7.47;;;21.20;99.90;;;;;;5055420;28;20159;-55
2022/05/06 11:38:42;;;;;;;8.20;7.50;;;21.40;99.90;;;;;;5058708;28;20533;-49
2022/05/06 11:41:10;;;;;;;7.60;6.80;;;21.20;99.90;;;;;;5060512;28;20041;-51
2022/05/06 11:43:37;;;;;;;9.18;8.27;;;21.20;99.90;;;;;;5058948;28;20121;-52
2022/05/06 11:48:48;;;;;;;9.88;8.68;;;21.20;99.90;;;;;;5060639;28;20506;-53
2022/05/06 11:51:35;;;;;;;9.57;8.57;;;21.10;99.90;;;;;;5060245;28;20048;-54
2022/05/06 11:54:02;;;;;;;13.70;10.10;;;21.10;99.90;;;;;;5052769;28;20048;-48
2022/05/06 11:56:28;;;;;;;10.73;9.68;;;21.10;99.90;;;;;;5060497;28;20480;-51
2022/05/06 11:58:58;;;;;;;11.07;9.80;;;21.40;99.90;;;;;;5060303;28;20086;-53
2022/05/06 12:01:28;;;;;;;10.80;8.68;;;21.40;99.90;;;;;;5042446;28;20048;-51
2022/05/06 12:03:59;;;;;;;11.93;8.50;;;21.40;99.90;;;;;;5060306;28;20052;-51
2022/05/06 12:06:27;;;;;;;11.65;9.65;;;21.30;99.90;;;;;;5060757;28;20080;-53
2022/05/06 12:09:12;;;;;;;11.55;9.95;;;21.40;99.90;;;;;;5037076;28;20534;-52
2022/05/06 12:11:42;;;;;;;10.65;9.10;;;21.10;99.90;;;;;;5057070;28;20190;-51
2022/05/06 12:14:15;;;;;;;12.25;9.00;;;21.10;99.90;;;;;;5056674;28;20099;-49
2022/05/06 12:16:57;;;;;;;;;;;21.30;99.90;;;;;;5058691;28;20830;-52
2022/05/06 12:19:40;;;;;;;14.43;9.85;;;21.40;99.90;;;;;;5035732;28;19984;-50
2022/05/06 12:22:14;;;;;;;13.55;10.13;;;21.30;99.90;;;;;;5041349;28;20052;-53
2022/05/06 12:24:42;;;;;;;10.50;9.45;;;21.40;99.90;;;;;;5042371;28;20709;-54
2022/05/06 12:27:08;;;;;;;12.73;10.98;;;21.40;99.90;;;;;;5058987;28;20059;-53
2022/05/06 12:29:41;;;;;;;13.50;11.13;;;21.50;99.90;;;;;;5057785;28;20459;-51
2022/05/06 12:32:07;;;;;;;14.13;12.60;;;21.50;99.90;;;;;;5059921;28;20123;-49
2022/05/06 12:34:33;;;;;;;14.93;13.43;;;21.70;99.90;;;;;;5037377;28;20466;-52
2022/05/06 12:37:17;;;;;;;15.90;12.50;;;21.80;99.90;;;;;;5055172;28;20052;-50
2022/05/06 12:39:48;;;;;;;24.40;13.77;;;21.60;99.90;;;;;;5054796;28;20511;-53
2022/05/06 12:42:15;;;;;;;17.63;12.57;;;21.50;99.90;;;;;;5054277;28;20052;-48
2022/05/06 12:44:42;;;;;;;15.23;13.15;;;21.60;99.90;;;;;;5051437;28;20508;-53
2022/05/06 12:50:11;;;;;;;18.83;14.90;;;21.60;99.90;;;;;;5057005;28;20526;-52
2022/05/06 12:52:38;;;;;;;18.73;14.32;;;21.50;99.90;;;;;;5037167;28;20060;-53
2022/05/06 12:55:05;;;;;;;15.10;13.52;;;21.30;99.90;;;;;;5042394;28;20060;-49
2022/05/06 12:57:31;;;;;;;16.48;14.23;;;21.30;99.90;;;;;;5044301;28;20095;-53
2022/05/06 12:59:58;;;;;;;18.83;15.05;;;21.30;99.90;;;;;;5043439;28;20403;-49
2022/05/06 13:02:24;;;;;;;16.90;15.25;;;21.50;99.90;;;;;;5062124;28;20415;-52
2022/05/06 13:04:50;;;;;;;79.80;20.30;;;21.90;99.90;;;;;;5062716;28;20056;-49
2022/05/06 13:07:16;;;;;;;23.20;18.20;;;22.00;99.90;;;;;;5046055;28;20049;-55
2022/05/06 13:09:42;;;;;;;20.45;18.27;;;22.00;99.90;;;;;;5054334;28;20061;-54
2022/05/06 13:12:12;;;;;;;19.77;17.77;;;22.00;99.90;;;;;;5051886;28;20091;-53
2022/05/06 13:14:38;;;;;;;22.40;19.95;;;21.80;99.90;;;;;;5057184;28;20052;-53
2022/05/06 13:17:04;;;;;;;17.25;15.15;;;21.80;99.90;;;;;;5034824;28;20098;-52
2022/05/06 13:19:30;;;;;;;21.50;19.40;;;21.70;99.90;;;;;;5049291;28;20233;-52
2022/05/06 13:21:57;;;;;;;18.38;16.58;;;21.70;99.90;;;;;;5055342;28;20052;-48
2022/05/06 13:24:23;;;;;;;21.35;19.20;;;21.80;99.90;;;;;;5028505;28;20065;-50
2022/05/06 13:26:49;;;;;;;22.30;19.98;;;22.00;99.90;;;;;;5038690;28;20411;-52